Time;durP1;ratioP1;P1;durP2;ratioP2;P2;SDS_P1;SDS_P2;PMS_P1;PMS_P2;Temp;Humidity;BMP_temperature;BMP_pressure;BME280_temperature;BME280_humidity;BME280_pressure;Samples;Min_cycle;Max_cycle;Signal;HPM_P1;HPM_P2
2021/12/06 00:00:19;;;;;;;;;;;5.20;87.60;;;;;;5048574;28;20320;-86
2021/12/06 00:02:45;;;;;;;;;;;5.10;87.50;;;;;;5052191;28;20352;-85
2021/12/06 00:05:11;;;;;;;;;;;5.20;87.50;;;;;;5049275;28;19910;-86
2021/12/06 00:07:38;;;;;;;;;;;5.10;87.50;;;;;;5042481;28;19932;-86
2021/12/06 00:10:04;;;;;;;;;;;5.10;87.80;;;;;;5052431;28;19909;-86
2021/12/06 00:12:30;;;;;;;;;;;5.10;87.80;;;;;;5041936;28;19947;-86
2021/12/06 00:14:55;;;;;;;;;;;5.10;87.70;;;;;;5050346;28;20007;-86
2021/12/06 00:17:21;;;;;;;;;;;5.10;87.50;;;;;;5050632;28;20406;-86
2021/12/06 00:19:47;;;;;;;;;;;5.00;87.40;;;;;;5039654;28;20280;-86
2021/12/06 00:22:14;;;;;;;;;;;4.80;87.80;;;;;;5051519;28;20008;-86
2021/12/06 00:24:40;;;;;;;;;;;4.80;87.90;;;;;;5055376;28;19913;-86
2021/12/06 00:27:05;;;;;;;;;;;4.70;88.00;;;;;;5059874;28;19915;-86
2021/12/06 00:29:31;;;;;;;;;;;4.80;88.60;;;;;;5047108;28;19932;-84
2021/12/06 00:31:56;;;;;;;;;;;4.80;88.20;;;;;;5057633;28;19909;-84
2021/12/06 00:34:24;;;;;;;;;;;4.70;88.20;;;;;;5059182;28;19929;-85
2021/12/06 00:37:04;;;;;;;;;;;4.60;88.20;;;;;;5059471;28;20384;-85
2021/12/06 00:39:29;;;;;;;;;;;4.50;88.10;;;;;;5052926;28;20371;-84
2021/12/06 00:41:55;;;;;;;;;;;4.30;88.20;;;;;;5047507;28;19947;-84
2021/12/06 00:44:20;;;;;;;;;;;4.30;88.20;;;;;;5051757;28;19948;-85
2021/12/06 00:46:46;;;;;;;;;;;4.20;88.20;;;;;;5051962;28;19920;-85
2021/12/06 00:49:11;;;;;;;;;;;4.20;88.10;;;;;;5054075;28;19913;-84
2021/12/06 00:51:37;;;;;;;;;;;4.10;88.30;;;;;;5055835;28;19924;-85
2021/12/06 00:54:02;;;;;;;;;;;4.00;88.90;;;;;;5049231;28;20291;-85
2021/12/06 00:56:28;;;;;;;;;;;4.00;89.20;;;;;;5051425;28;20287;-85
2021/12/06 00:58:53;;;;;;;;;;;3.90;89.00;;;;;;5052467;28;19920;-85
2021/12/06 01:01:19;;;;;;;;;;;3.90;88.80;;;;;;5047708;28;19917;-85
2021/12/06 01:03:44;;;;;;;;;;;3.90;88.90;;;;;;5053256;28;19917;-84
2021/12/06 01:06:11;;;;;;;;;;;3.80;89.00;;;;;;5060576;28;20314;-85
2021/12/06 01:08:37;;;;;;;;;;;3.80;88.80;;;;;;5056980;28;20103;-85
2021/12/06 01:11:03;;;;;;;;;;;3.80;88.70;;;;;;5060816;28;20039;-85
2021/12/06 01:13:29;;;;;;;;;;;3.70;88.80;;;;;;5069012;28;20453;-85
2021/12/06 01:15:54;;;;;;;;;;;3.60;88.70;;;;;;5061125;28;19974;-85
2021/12/06 01:18:20;;;;;;;;;;;3.60;88.70;;;;;;5053405;28;19920;-85
2021/12/06 01:21:15;;;;;;;;;;;3.60;88.50;;;;;;5056772;28;20208;-85
2021/12/06 01:23:57;;;;;;;;;;;3.60;89.10;;;;;;5058836;28;20024;-85
2021/12/06 01:29:36;;;;;;;;;;;3.60;88.70;;;;;;5050087;28;19913;-84
2021/12/06 01:32:12;;;;;;;;;;;3.60;88.50;;;;;;5042565;28;19916;-85
2021/12/06 01:40:05;;;;;;;;;;;3.50;88.40;;;;;;5064414;28;19920;-84
2021/12/06 01:42:31;;;;;;;;;;;3.40;88.20;;;;;;5059498;28;19920;-85
2021/12/06 01:44:57;;;;;;;;;;;3.30;88.40;;;;;;5061328;28;19923;-85
2021/12/06 01:47:29;;;;;;;;;;;3.30;88.60;;;;;;5060096;28;19913;-85
2021/12/06 01:50:04;;;;;;;;;;;3.30;88.40;;;;;;5058091;28;20414;-85
2021/12/06 01:52:31;;;;;;;;;;;3.20;88.40;;;;;;5053472;28;19921;-84
2021/12/06 01:54:58;;;;;;;;;;;3.20;88.20;;;;;;5067894;28;19925;-84
2021/12/06 01:57:24;;;;;;;;;;;3.10;87.90;;;;;;5053791;28;20011;-84
2021/12/06 01:59:50;;;;;;;;;;;3.00;87.70;;;;;;5048233;28;19985;-85
2021/12/06 02:02:16;;;;;;;;;;;2.90;87.70;;;;;;5057903;28;19948;-85
2021/12/06 02:04:42;;;;;;;;;;;2.90;88.00;;;;;;5059098;28;19921;-85
2021/12/06 02:07:12;;;;;;;;;;;2.80;87.80;;;;;;5060056;28;19928;-85
2021/12/06 02:09:38;;;;;;;;;;;2.90;87.80;;;;;;5058882;28;19924;-85
2021/12/06 02:12:04;;;;;;;;;;;2.70;87.60;;;;;;5048420;28;19920;-85
2021/12/06 02:15:00;;;;;;;;;;;2.70;88.10;;;;;;5055654;28;19923;-84
2021/12/06 02:17:30;;;;;;;;;;;2.60;88.30;;;;;;5056872;28;20403;-84
2021/12/06 02:20:00;;;;;;;;;;;2.70;88.00;;;;;;5043138;28;19913;-85
2021/12/06 02:22:27;;;;;;;;;;;2.80;88.40;;;;;;5070445;28;19916;-85
2021/12/06 02:24:54;;;;;;;;;;;2.70;88.40;;;;;;5052871;28;19913;-84
2021/12/06 02:27:21;;;;;;;;;;;2.70;89.30;;;;;;5051289;28;20004;-85
2021/12/06 02:29:48;;;;;;;;;;;2.70;89.10;;;;;;5055569;28;20197;-85
2021/12/06 02:32:14;;;;;;;;;;;2.60;88.70;;;;;;5049383;28;20002;-85
2021/12/06 02:34:41;;;;;;;;;;;2.60;88.90;;;;;;5058988;28;19913;-85
2021/12/06 02:37:09;;;;;;;;;;;2.60;88.80;;;;;;5057413;28;20003;-85
2021/12/06 02:39:34;;;;;;;;;;;2.60;88.80;;;;;;5057162;28;19913;-85
2021/12/06 02:42:00;;;;;;;;;;;2.60;89.00;;;;;;5058371;28;20003;-85
2021/12/06 02:44:26;;;;;;;;;;;2.60;88.90;;;;;;5057166;28;19920;-85
2021/12/06 02:46:51;;;;;;;;;;;2.60;88.60;;;;;;5052314;28;20276;-85
2021/12/06 02:49:17;;;;;;;;;;;2.60;88.00;;;;;;5056329;28;20228;-84
2021/12/06 02:51:42;;;;;;;;;;;2.50;87.50;;;;;;5048898;28;20390;-84
2021/12/06 02:54:09;;;;;;;;;;;2.30;87.50;;;;;;5043832;28;19913;-85
2021/12/06 02:56:54;;;;;;;;;;;2.30;87.50;;;;;;5056249;28;20303;-84
2021/12/06 02:59:21;;;;;;;;;;;2.30;87.40;;;;;;5054694;28;20317;-84
2021/12/06 03:01:48;;;;;;;;;;;2.20;87.40;;;;;;5055893;28;19913;-85
2021/12/06 03:04:13;;;;;;;;;;;2.20;87.50;;;;;;5052332;28;19916;-84
2021/12/06 03:06:42;;;;;;;;;;;2.20;87.30;;;;;;5054297;28;20294;-85
2021/12/06 03:09:12;;;;;;;;;;;2.10;87.50;;;;;;5056810;28;19916;-85
2021/12/06 03:11:37;;;;;;;;;;;2.10;87.70;;;;;;5056110;28;20383;-85
2021/12/06 03:14:04;;;;;;;;;;;2.10;87.40;;;;;;5042146;28;19966;-85
2021/12/06 03:16:30;;;;;;;;;;;2.20;87.30;;;;;;5066311;28;19973;-84
2021/12/06 03:18:56;;;;;;;;;;;2.10;87.30;;;;;;5045359;28;20051;-84
2021/12/06 03:21:22;;;;;;;;;;;2.10;87.60;;;;;;5047485;28;19913;-85
2021/12/06 03:23:48;;;;;;;;;;;2.10;88.10;;;;;;5032996;28;19917;-85
2021/12/06 03:26:14;;;;;;;;;;;2.10;88.00;;;;;;5048783;28;19958;-84
2021/12/06 03:28:42;;;;;;;;;;;2.10;87.90;;;;;;5053823;28;19916;-85
2021/12/06 03:31:16;;;;;;;;;;;2.10;87.80;;;;;;5055087;28;19970;-85
2021/12/06 03:33:46;;;;;;;;;;;2.00;87.70;;;;;;5050661;28;19916;-86
2021/12/06 03:36:12;;;;;;;;;;;1.90;87.50;;;;;;5055801;28;20351;-85
2021/12/06 03:38:39;;;;;;;;;;;1.90;87.40;;;;;;5050013;28;19917;-84
2021/12/06 03:41:06;;;;;;;;;;;1.80;87.40;;;;;;5040888;28;19909;-83
2021/12/06 03:43:32;;;;;;;;;;;1.70;87.20;;;;;;5038464;28;20272;-85
2021/12/06 03:45:57;;;;;;;;;;;1.70;87.70;;;;;;5056064;28;19971;-84
2021/12/06 03:48:23;;;;;;;;;;;1.60;87.70;;;;;;5051447;28;19924;-83
2021/12/06 03:50:48;;;;;;;;;;;1.60;87.50;;;;;;5051884;28;19917;-85
2021/12/06 03:53:14;;;;;;;;;;;1.60;87.30;;;;;;5037190;28;20296;-85
2021/12/06 03:55:39;;;;;;;;;;;1.60;87.40;;;;;;5053796;28;19912;-84
2021/12/06 03:58:05;;;;;;;;;;;1.60;87.40;;;;;;5052817;28;19913;-84
2021/12/06 04:00:30;;;;;;;;;;;1.60;87.40;;;;;;5052417;28;19908;-84
2021/12/06 04:02:56;;;;;;;;;;;1.70;87.20;;;;;;5050301;28;20008;-84
2021/12/06 04:05:22;;;;;;;;;;;1.60;87.50;;;;;;5053879;28;20314;-85
2021/12/06 04:07:47;;;;;;;;;;;1.70;87.60;;;;;;5057233;28;19939;-84
2021/12/06 04:10:13;;;;;;;;;;;1.70;87.90;;;;;;5057592;28;19939;-84
2021/12/06 04:12:39;;;;;;;;;;;1.90;87.70;;;;;;5050686;28;19966;-84
2021/12/06 04:15:07;;;;;;;;;;;2.00;87.70;;;;;;5041087;28;19917;-84
2021/12/06 04:17:33;;;;;;;;;;;1.90;87.80;;;;;;5053164;28;19924;-83
2021/12/06 04:19:58;;;;;;;;;;;1.90;88.10;;;;;;5054725;28;19913;-83
2021/12/06 04:22:24;;;;;;;;;;;2.00;88.10;;;;;;5052343;28;19935;-83
2021/12/06 04:24:50;;;;;;;;;;;2.00;88.00;;;;;;5053371;28;20000;-84
2021/12/06 04:27:17;;;;;;;;;;;2.10;87.90;;;;;;5047017;28;20008;-83
2021/12/06 04:29:44;;;;;;;;;;;2.10;88.00;;;;;;5041819;28;19931;-84
2021/12/06 04:32:10;;;;;;;;;;;2.10;87.80;;;;;;5047100;28;19924;-84
2021/12/06 04:34:36;;;;;;;;;;;2.20;87.80;;;;;;5045376;28;19917;-84
2021/12/06 04:37:01;;;;;;;;;;;2.20;87.90;;;;;;5054497;28;19952;-84
2021/12/06 04:39:28;;;;;;;;;;;2.20;87.80;;;;;;5071487;28;19928;-83
2021/12/06 04:41:53;;;;;;;;;;;2.20;87.90;;;;;;5052191;28;19909;-83
2021/12/06 04:44:19;;;;;;;;;;;2.30;88.00;;;;;;5053645;28;20371;-84
2021/12/06 04:46:44;;;;;;;;;;;2.30;88.10;;;;;;5051803;28;19909;-84
2021/12/06 04:49:10;;;;;;;;;;;2.20;87.80;;;;;;5045679;28;19917;-84
2021/12/06 04:51:36;;;;;;;;;;;2.10;87.90;;;;;;5055905;28;19923;-84
2021/12/06 04:54:02;;;;;;;;;;;2.10;88.30;;;;;;5050815;28;19917;-84
2021/12/06 04:56:30;;;;;;;;;;;2.10;88.80;;;;;;5051836;28;19984;-84
2021/12/06 04:58:56;;;;;;;;;;;2.10;89.20;;;;;;5049575;28;20286;-83
2021/12/06 05:01:24;;;;;;;;;;;2.10;88.80;;;;;;5050629;28;20012;-84
2021/12/06 05:03:51;;;;;;;;;;;1.90;88.60;;;;;;5050573;28;20284;-84
2021/12/06 05:06:22;;;;;;;;;;;1.80;88.90;;;;;;5050698;28;19925;-84
2021/12/06 05:08:50;;;;;;;;;;;2.00;89.10;;;;;;5041986;28;19921;-83
2021/12/06 05:11:18;;;;;;;;;;;2.00;89.10;;;;;;5051934;28;19979;-84
2021/12/06 05:13:45;;;;;;;;;;;2.10;89.40;;;;;;5053594;28;19912;-83
2021/12/06 05:16:10;;;;;;;;;;;2.10;89.10;;;;;;5057380;28;20256;-84
2021/12/06 05:18:36;;;;;;;;;;;2.10;88.80;;;;;;5058609;28;19935;-84
2021/12/06 05:21:01;;;;;;;;;;;2.10;88.50;;;;;;5045565;28;19917;-84
2021/12/06 05:23:27;;;;;;;;;;;2.00;88.40;;;;;;5056052;28;20024;-85
2021/12/06 05:25:52;;;;;;;;;;;2.00;88.40;;;;;;5056022;28;19963;-84
2021/12/06 05:28:22;;;;;;;;;;;2.00;88.60;;;;;;5055891;28;19908;-85
2021/12/06 05:30:49;;;;;;;;;;;2.00;88.80;;;;;;5058561;28;19927;-84
2021/12/06 05:33:28;;;;;;;;;;;2.00;88.70;;;;;;5035069;28;20022;-84
2021/12/06 05:35:53;;;;;;;;;;;2.00;88.80;;;;;;5050406;28;20259;-84
2021/12/06 05:38:19;;;;;;;;;;;2.00;88.90;;;;;;5062419;28;19919;-84
2021/12/06 05:40:46;;;;;;;;;;;2.00;89.20;;;;;;5064391;28;19924;-85
2021/12/06 05:43:12;;;;;;;;;;;2.00;89.20;;;;;;5059958;28;20019;-85
2021/12/06 05:45:38;;;;;;;;;;;2.00;89.00;;;;;;5055768;28;19948;-81
2021/12/06 05:48:04;;;;;;;;;;;1.90;89.00;;;;;;5059422;28;19948;-83
2021/12/06 05:50:29;;;;;;;;;;;1.80;89.00;;;;;;5062632;28;19917;-84
2021/12/06 05:52:55;;;;;;;;;;;1.90;89.30;;;;;;5048763;28;19919;-84
2021/12/06 05:55:21;;;;;;;;;;;2.00;88.90;;;;;;5050791;28;19917;-84
2021/12/06 05:57:47;;;;;;;;;;;1.90;88.80;;;;;;5058292;28;19913;-81
2021/12/06 06:00:13;;;;;;;;;;;1.90;89.10;;;;;;5057258;28;19909;-80
2021/12/06 06:02:39;;;;;;;;;;;1.80;89.20;;;;;;5071852;28;20445;-84
2021/12/06 06:05:07;;;;;;;;;;;1.90;89.20;;;;;;5055780;28;19938;-85
2021/12/06 06:07:32;;;;;;;;;;;2.00;89.20;;;;;;5056610;28;19920;-86
2021/12/06 06:09:58;;;;;;;;;;;1.90;88.80;;;;;;5054725;28;19913;-84
2021/12/06 06:12:23;;;;;;;;;;;1.90;88.80;;;;;;5054435;28;19921;-86
2021/12/06 06:14:49;;;;;;;;;;;1.80;88.80;;;;;;5053578;28;19932;-82
2021/12/06 06:17:18;;;;;;;;;;;1.70;88.80;;;;;;5046525;28;19923;-83
2021/12/06 06:19:46;;;;;;;;;;;1.60;89.00;;;;;;5055353;28;19971;-84
2021/12/06 06:22:11;;;;;;;;;;;1.60;89.30;;;;;;5056770;28;19913;-83
2021/12/06 06:24:37;;;;;;;;;;;1.80;89.30;;;;;;5055265;28;19974;-83
2021/12/06 06:27:02;;;;;;;;;;;1.80;89.10;;;;;;5054619;28;19912;-86
2021/12/06 06:29:28;;;;;;;;;;;1.80;89.10;;;;;;5049851;28;19919;-83
2021/12/06 06:31:54;;;;;;;;;;;1.70;89.10;;;;;;5046890;28;20344;-84
2021/12/06 06:34:19;;;;;;;;;;;1.70;89.10;;;;;;5048242;28;19924;-86
2021/12/06 06:36:45;;;;;;;;;;;1.60;89.30;;;;;;5047771;28;20390;-83
2021/12/06 06:39:11;;;;;;;;;;;1.80;89.60;;;;;;5046758;28;19913;-85
2021/12/06 06:41:36;;;;;;;;;;;1.90;89.70;;;;;;5053577;28;20067;-86
2021/12/06 06:44:05;;;;;;;;;;;1.90;89.70;;;;;;5038043;28;19913;-85
2021/12/06 06:46:34;;;;;;;;;;;2.00;89.40;;;;;;5032896;28;19955;-87
2021/12/06 06:52:37;;;;;;;;;;;2.00;88.60;;;;;;5052708;28;19917;-86
2021/12/06 06:55:04;;;;;;;;;;;1.90;88.60;;;;;;5053383;28;19913;-85
2021/12/06 06:57:30;;;;;;;;;;;1.90;89.20;;;;;;5055550;28;19909;-85
2021/12/06 06:59:55;;;;;;;;;;;2.00;89.60;;;;;;5053506;28;19975;-85
2021/12/06 07:02:21;;;;;;;;;;;1.90;88.80;;;;;;5053106;28;19918;-85
2021/12/06 07:04:46;;;;;;;;;;;1.70;89.00;;;;;;5052532;28;19912;-85
2021/12/06 07:07:14;;;;;;;;;;;1.50;89.20;;;;;;5053534;28;20012;-84
2021/12/06 07:09:42;;;;;;;;;;;1.40;89.70;;;;;;5053106;28;19909;-85
2021/12/06 07:12:13;;;;;;;;;;;1.30;89.80;;;;;;5053896;28;19960;-85
2021/12/06 07:14:42;;;;;;;;;;;1.30;89.80;;;;;;5053932;28;20011;-88
2021/12/06 07:17:07;;;;;;;;;;;1.30;90.00;;;;;;5052112;28;19917;-83
2021/12/06 07:19:33;;;;;;;;;;;1.60;89.80;;;;;;5049827;28;19991;-83
2021/12/06 07:21:59;;;;;;;;;;;1.50;89.80;;;;;;5047523;28;19919;-83
2021/12/06 07:24:25;;;;;;;;;;;1.50;89.60;;;;;;5072080;28;19913;-80
2021/12/06 07:26:50;;;;;;;;;;;1.60;89.60;;;;;;5052296;28;19957;-81
2021/12/06 07:29:16;;;;;;;;;;;1.60;89.20;;;;;;5050597;28;20307;-81
2021/12/06 07:31:41;;;;;;;;;;;1.40;89.30;;;;;;5049728;28;19924;-82
2021/12/06 07:34:07;;;;;;;;;;;1.30;89.50;;;;;;5071107;28;19962;-81
2021/12/06 07:36:32;;;;;;;;;;;1.30;89.70;;;;;;5054991;28;19944;-81
2021/12/06 07:38:58;;;;;;;;;;;1.30;90.00;;;;;;5058045;28;19912;-83
2021/12/06 07:41:26;;;;;;;;;;;1.60;90.20;;;;;;5056500;28;19909;-83
2021/12/06 07:43:52;;;;;;;;;;;1.70;90.00;;;;;;5052619;28;19916;-82
2021/12/06 07:46:17;;;;;;;;;;;1.80;89.80;;;;;;5054482;28;20374;-82
2021/12/06 07:48:42;;;;;;;;;;;1.80;89.80;;;;;;5055256;28;19913;-83
2021/12/06 07:51:08;;;;;;;;;;;1.80;89.60;;;;;;5055139;28;19975;-82
2021/12/06 07:53:35;;;;;;;;;;;1.80;89.50;;;;;;5055731;28;19916;-81
2021/12/06 07:56:01;;;;;;;;;;;1.80;89.20;;;;;;5056020;28;19939;-83
2021/12/06 07:58:27;;;;;;;;;;;1.90;89.40;;;;;;5054880;28;20061;-83
2021/12/06 08:00:55;;;;;;;;;;;2.00;89.60;;;;;;5056590;28;21322;-81
2021/12/06 08:03:22;;;;;;;;;;;2.10;89.30;;;;;;5056427;28;19908;-83
2021/12/06 08:05:49;;;;;;;;;;;2.20;89.20;;;;;;5058698;28;19917;-82
2021/12/06 08:08:14;;;;;;;;;;;2.10;89.00;;;;;;5067910;28;19920;-81
2021/12/06 08:10:44;;;;;;;;;;;2.00;88.90;;;;;;5044033;28;19913;-84
2021/12/06 08:13:10;;;;;;;;;;;1.90;89.50;;;;;;5043925;28;19912;-83
2021/12/06 08:15:35;;;;;;;;;;;1.90;89.70;;;;;;5063108;28;19974;-82
2021/12/06 08:18:01;;;;;;;;;;;1.60;89.80;;;;;;5061508;28;19909;-82
2021/12/06 08:20:26;;;;;;;;;;;1.60;90.50;;;;;;5062532;28;19966;-83
2021/12/06 08:22:52;;;;;;;;;;;1.60;90.70;;;;;;5060706;28;19919;-84
2021/12/06 08:25:18;;;;;;;;;;;1.60;90.50;;;;;;5059603;28;19939;-83
2021/12/06 08:27:43;;;;;;;;;;;1.60;90.70;;;;;;5058050;28;20004;-83
2021/12/06 08:30:09;;;;;;;;;;;1.80;90.90;;;;;;5060407;28;20375;-83
2021/12/06 08:32:35;;;;;;;;;;;1.80;90.70;;;;;;5058452;28;19908;-83
2021/12/06 08:35:01;;;;;;;;;;;1.60;90.50;;;;;;5058797;28;19927;-83
2021/12/06 08:37:27;;;;;;;;;;;1.70;90.60;;;;;;5059438;28;19909;-83
2021/12/06 08:39:52;;;;;;;;;;;1.90;90.60;;;;;;5059284;28;19980;-84
2021/12/06 08:42:18;;;;;;;;;;;2.00;90.40;;;;;;5060099;28;20453;-83
2021/12/06 08:44:43;;;;;;;;;;;2.10;90.50;;;;;;5059314;28;19916;-82
2021/12/06 08:47:09;;;;;;;;;;;2.10;90.20;;;;;;5071394;28;19905;-82
2021/12/06 08:49:34;;;;;;;;;;;2.20;90.00;;;;;;5061847;28;19923;-84
2021/12/06 08:52:00;;;;;;;;;;;2.30;90.10;;;;;;5060390;28;19921;-83
2021/12/06 08:54:27;;;;;;;;;;;2.30;89.90;;;;;;5059574;28;19909;-82
2021/12/06 08:56:54;;;;;;;;;;;2.30;89.80;;;;;;5060022;28;19979;-83
2021/12/06 08:59:19;;;;;;;;;;;2.30;89.60;;;;;;5050197;28;19917;-84
2021/12/06 09:01:45;;;;;;;;;;;2.10;89.40;;;;;;5045382;28;19909;-84
2021/12/06 09:04:12;;;;;;;;;;;1.90;89.30;;;;;;5057654;28;20291;-83
2021/12/06 09:06:43;;;;;;;;;;;2.00;89.30;;;;;;5059130;28;19912;-83
2021/12/06 09:09:09;;;;;;;;;;;2.10;89.20;;;;;;5062188;28;19916;-82
2021/12/06 09:11:39;;;;;;;;;;;2.00;89.20;;;;;;5060249;28;19957;-83
2021/12/06 09:14:05;;;;;;;;;;;2.10;89.60;;;;;;5064543;28;19909;-82
2021/12/06 09:16:31;;;;;;;;;;;2.20;89.50;;;;;;5062112;28;19938;-82
2021/12/06 09:18:58;;;;;;;;;;;2.10;89.10;;;;;;5061642;28;21085;-83
2021/12/06 09:21:23;;;;;;;;;;;2.00;89.30;;;;;;5062352;28;19972;-84
2021/12/06 09:23:52;;;;;;;;;;;1.90;89.50;;;;;;5063546;28;19916;-83
2021/12/06 09:26:17;;;;;;;;;;;2.00;89.80;;;;;;5063098;28;19919;-83
2021/12/06 09:28:43;;;;;;;;;;;2.00;89.80;;;;;;5061076;28;19909;-82
2021/12/06 09:31:09;;;;;;;;;;;2.00;89.80;;;;;;5049946;28;19913;-83
2021/12/06 09:33:38;;;;;;;;;;;2.10;90.00;;;;;;5061740;28;19924;-83
2021/12/06 09:36:05;;;;;;;;;;;1.90;89.80;;;;;;5072413;28;19901;-82
2021/12/06 09:38:38;;;;;;;;;;;1.80;89.80;;;;;;5069533;28;19913;-84
2021/12/06 09:41:05;;;;;;;;;;;2.00;89.80;;;;;;5064831;28;19912;-81
2021/12/06 09:43:31;;;;;;;;;;;2.20;90.00;;;;;;5065930;28;19909;-83
2021/12/06 09:45:56;;;;;;;;;;;2.40;89.90;;;;;;5063489;28;19909;-83
2021/12/06 09:48:22;;;;;;;;;;;2.50;89.50;;;;;;5061750;28;20326;-84
2021/12/06 09:50:50;;;;;;;;;;;2.40;89.10;;;;;;5064779;28;20472;-82
2021/12/06 09:53:18;;;;;;;;;;;2.40;88.80;;;;;;5051587;28;19977;-82
2021/12/06 09:55:45;;;;;;;;;;;2.50;88.90;;;;;;5048755;28;19925;-84
2021/12/06 09:58:11;;;;;;;;;;;2.30;88.70;;;;;;5038590;28;19924;-84
2021/12/06 10:00:42;;;;;;;;;;;2.10;88.80;;;;;;5061366;28;19952;-84
2021/12/06 10:03:09;;;;;;;;;;;2.20;89.00;;;;;;5059043;28;19921;-81
2021/12/06 10:05:34;;;;;;;;;;;2.20;89.10;;;;;;5056981;28;19936;-82
2021/12/06 10:08:00;;;;;;;;;;;2.30;89.10;;;;;;5061660;28;19913;-82
2021/12/06 10:10:26;;;;;;;;;;;2.30;88.90;;;;;;5075978;28;19928;-83
2021/12/06 10:12:54;;;;;;;;;;;2.50;88.90;;;;;;5057686;28;20075;-83
2021/12/06 10:15:20;;;;;;;;;;;2.60;88.70;;;;;;5053431;28;19919;-83
2021/12/06 10:17:45;;;;;;;;;;;2.50;88.70;;;;;;5044092;28;19912;-81
2021/12/06 10:20:12;;;;;;;;;;;2.60;88.60;;;;;;5046089;28;19920;-82
2021/12/06 10:22:38;;;;;;;;;;;2.80;88.80;;;;;;5040690;28;20294;-84
2021/12/06 10:25:04;;;;;;;;;;;2.90;88.30;;;;;;5053479;28;19939;-83
2021/12/06 10:27:30;;;;;;;;;;;3.00;87.80;;;;;;5057234;28;19913;-84
2021/12/06 10:30:00;;;;;;;;;;;3.10;87.50;;;;;;5057558;28;19909;-85
2021/12/06 10:32:27;;;;;;;;;;;3.00;87.60;;;;;;5045663;28;19913;-85
2021/12/06 10:34:58;;;;;;;;;;;3.00;88.20;;;;;;5042548;28;20038;-84
2021/12/06 10:37:27;;;;;;;;;;;3.00;88.40;;;;;;5054627;28;19913;-85
2021/12/06 10:39:53;;;;;;;;;;;2.90;88.30;;;;;;5072487;28;19913;-84
2021/12/06 10:42:26;;;;;;;;;;;2.80;88.30;;;;;;5039668;28;19916;-82
2021/12/06 10:44:51;;;;;;;;;;;2.80;88.60;;;;;;5043032;28;19913;-83
2021/12/06 10:47:17;;;;;;;;;;;2.80;88.30;;;;;;5048898;28;20730;-86
2021/12/06 10:49:46;;;;;;;;;;;2.80;88.50;;;;;;5038294;28;19924;-86
2021/12/06 10:52:11;;;;;;;;;;;2.80;88.50;;;;;;5052857;28;19917;-86
2021/12/06 10:54:39;;;;;;;;;;;3.10;88.90;;;;;;5040025;28;19982;-86
2021/12/06 10:57:08;;;;;;;;;;;3.10;87.90;;;;;;5035855;28;20371;-86
2021/12/06 10:59:36;;;;;;;;;;;3.30;88.00;;;;;;5053900;28;20264;-86
2021/12/06 11:02:07;;;;;;;;;;;3.20;88.00;;;;;;5047175;28;19932;-85
2021/12/06 11:04:32;;;;;;;;;;;3.40;88.30;;;;;;5051944;28;20019;-85
2021/12/06 11:07:05;;;;;;;;;;;3.50;87.90;;;;;;5042517;28;20398;-86
2021/12/06 11:09:31;;;;;;;;;;;3.50;87.50;;;;;;5052415;28;19909;-86
2021/12/06 11:11:59;;;;;;;;;;;3.60;87.70;;;;;;5047488;28;20318;-86
2021/12/06 11:14:24;;;;;;;;;;;3.50;87.40;;;;;;5040913;28;19917;-86
2021/12/06 11:16:55;;;;;;;;;;;3.30;87.80;;;;;;5052495;28;20394;-86
2021/12/06 11:19:22;;;;;;;;;;;3.50;88.30;;;;;;5054350;28;19909;-86
2021/12/06 11:21:52;;;;;;;;;;;3.70;88.00;;;;;;5046277;28;19963;-86
2021/12/06 11:24:28;;;;;;;;;;;3.60;87.50;;;;;;5050247;28;19912;-86
2021/12/06 11:27:04;;;;;;;;;;;3.40;87.70;;;;;;5037452;28;20016;-85
2021/12/06 11:29:39;;;;;;;;;;;3.50;88.00;;;;;;5052768;28;19913;-86
2021/12/06 11:32:15;;;;;;;;;;;3.50;87.40;;;;;;5068975;28;19904;-85
2021/12/06 11:34:43;;;;;;;;;;;3.50;87.50;;;;;;5042120;28;19913;-86
2021/12/06 11:37:25;;;;;;;;;;;3.20;87.90;;;;;;5054535;28;19995;-87
2021/12/06 11:40:00;;;;;;;;;;;3.20;88.10;;;;;;5044064;28;20390;-86
2021/12/06 11:42:26;;;;;;;;;;;3.40;88.10;;;;;;5042309;28;19966;-86
2021/12/06 11:44:52;;;;;;;;;;;3.50;87.90;;;;;;5048214;28;19917;-86
2021/12/06 11:47:19;;;;;;;;;;;3.40;87.60;;;;;;5052708;28;20365;-85
2021/12/06 11:49:50;;;;;;;;;;;3.20;87.90;;;;;;5051385;28;19909;-86
2021/12/06 11:52:21;;;;;;;;;;;3.20;88.20;;;;;;5048254;28;20034;-86
2021/12/06 11:54:50;;;;;;;;;;;3.20;88.60;;;;;;5049166;28;19921;-86
2021/12/06 11:57:21;;;;;;;;;;;3.20;88.60;;;;;;5039206;28;20004;-86
2021/12/06 11:59:47;;;;;;;;;;;3.00;88.80;;;;;;5043077;28;19983;-86
2021/12/06 12:02:14;;;;;;;;;;;2.90;89.50;;;;;;5050524;28;19913;-87
2021/12/06 12:04:39;;;;;;;;;;;2.90;89.90;;;;;;5052609;28;19935;-86
2021/12/06 12:07:07;;;;;;;;;;;2.90;90.00;;;;;;5048331;28;19909;-86
2021/12/06 12:09:33;;;;;;;;;;;3.00;90.10;;;;;;5052235;28;19919;-85
2021/12/06 12:12:02;;;;;;;;;;;3.10;90.00;;;;;;5052101;28;19912;-86
2021/12/06 12:14:41;;;;;;;;;;;3.30;90.30;;;;;;5049118;28;19905;-86
2021/12/06 12:17:09;;;;;;;;;;;3.30;89.90;;;;;;5050883;28;19980;-86
2021/12/06 12:19:35;;;;;;;;;;;3.60;89.90;;;;;;5049046;28;19931;-86
2021/12/06 12:22:01;;;;;;;;;;;4.00;89.60;;;;;;5047975;28;19908;-86
2021/12/06 12:24:49;;;;;;;;;;;4.10;89.20;;;;;;5051848;28;19909;-88
2021/12/06 12:27:24;;;;;;;;;;;4.20;88.60;;;;;;5043246;28;19921;-86
2021/12/06 12:29:50;;;;;;;;;;;4.50;87.80;;;;;;5052972;28;19917;-87
2021/12/06 12:32:19;;;;;;;;;;;4.70;86.90;;;;;;5052679;28;20276;-89
2021/12/06 12:34:45;;;;;;;;;;;4.80;86.20;;;;;;5051884;28;19952;-86
2021/12/06 12:37:12;;;;;;;;;;;4.70;86.10;;;;;;5045202;28;19917;-85
2021/12/06 12:39:38;;;;;;;;;;;4.70;86.00;;;;;;5048510;28;19925;-87
2021/12/06 12:42:05;;;;;;;;;;;4.70;86.10;;;;;;5053084;28;19935;-88
2021/12/06 12:44:42;;;;;;;;;;;4.60;86.40;;;;;;5054916;28;19923;-87
2021/12/06 12:47:21;;;;;;;;;;;4.50;87.00;;;;;;5048173;28;20399;-83
2021/12/06 12:49:48;;;;;;;;;;;4.30;87.40;;;;;;5055390;28;19918;-86
2021/12/06 12:52:14;;;;;;;;;;;4.20;87.90;;;;;;5041521;28;19914;-87
2021/12/06 12:54:44;;;;;;;;;;;4.20;88.00;;;;;;5040873;28;19905;-87
2021/12/06 12:57:14;;;;;;;;;;;4.10;88.30;;;;;;5055964;28;20007;-87
2021/12/06 12:59:50;;;;;;;;;;;4.10;88.60;;;;;;5039627;28;19910;-85
2021/12/06 13:02:17;;;;;;;;;;;4.00;88.90;;;;;;5046394;28;19921;-86
2021/12/06 13:04:58;;;;;;;;;;;4.10;89.20;;;;;;5051420;28;20391;-86
2021/12/06 13:07:25;;;;;;;;;;;4.10;89.10;;;;;;5039978;28;20398;-85
2021/12/06 13:09:50;;;;;;;;;;;4.10;89.20;;;;;;5053406;28;20504;-84
2021/12/06 13:12:16;;;;;;;;;;;4.10;89.20;;;;;;5061506;28;19924;-85
2021/12/06 13:15:03;;;;;;;;;;;4.10;89.30;;;;;;5047690;28;20401;-85
2021/12/06 13:17:44;;;;;;;;;;;4.00;89.40;;;;;;5041246;28;20294;-83
2021/12/06 13:20:14;;;;;;;;;;;4.00;89.70;;;;;;5048309;28;19916;-84
2021/12/06 13:22:44;;;;;;;;;;;4.10;89.80;;;;;;5052790;28;19920;-84
2021/12/06 13:25:11;;;;;;;;;;;4.00;89.70;;;;;;5049871;28;19956;-84
2021/12/06 13:27:42;;;;;;;;;;;4.00;89.60;;;;;;5049710;28;19920;-84
2021/12/06 13:30:21;;;;;;;;;;;4.10;89.70;;;;;;5056924;28;20896;-84
2021/12/06 13:32:48;;;;;;;;;;;4.10;89.60;;;;;;5053597;28;19962;-82
2021/12/06 13:35:25;;;;;;;;;;;4.00;89.60;;;;;;5054759;28;19967;-84
2021/12/06 13:38:02;;;;;;;;;;;4.00;89.80;;;;;;5042615;28;19941;-86
2021/12/06 13:40:28;;;;;;;;;;;3.90;89.90;;;;;;5050298;28;19989;-86
2021/12/06 13:42:54;;;;;;;;;;;4.00;90.00;;;;;;5044495;28;19993;-86
2021/12/06 13:45:22;;;;;;;;;;;3.90;90.20;;;;;;5048761;28;20464;-85
2021/12/06 13:48:06;;;;;;;;;;;4.00;90.20;;;;;;5044401;28;19917;-84
2021/12/06 13:50:32;;;;;;;;;;;4.00;90.30;;;;;;5041554;28;19917;-85
2021/12/06 13:52:58;;;;;;;;;;;4.00;90.30;;;;;;5048820;28;19913;-84
2021/12/06 13:55:28;;;;;;;;;;;3.90;90.40;;;;;;5049735;28;19917;-84
2021/12/06 13:57:56;;;;;;;;;;;3.90;90.50;;;;;;5052419;28;19909;-85
2021/12/06 14:00:25;;;;;;;;;;;3.90;90.70;;;;;;5047371;28;19917;-84
2021/12/06 14:02:52;;;;;;;;;;;4.00;90.70;;;;;;5051803;28;19909;-84
2021/12/06 14:05:17;;;;;;;;;;;4.00;90.60;;;;;;5043797;28;19913;-84
2021/12/06 14:07:43;;;;;;;;;;;4.10;90.60;;;;;;5044529;28;19913;-84
2021/12/06 14:10:12;;;;;;;;;;;4.10;90.40;;;;;;5062415;28;19924;-85
2021/12/06 14:12:38;;;;;;;;;;;4.10;90.30;;;;;;5043035;28;19922;-85
2021/12/06 14:15:20;;;;;;;;;;;4.10;90.20;;;;;;5050692;28;19917;-85
2021/12/06 14:17:47;;;;;;;;;;;4.10;90.30;;;;;;5058087;28;19902;-84
2021/12/06 14:20:14;;;;;;;;;;;4.10;90.30;;;;;;5089311;28;19924;-85
2021/12/06 14:22:41;;;;;;;;;;;4.20;89.80;;;;;;5049601;28;19950;-85
2021/12/06 14:25:06;;;;;;;;;;;4.10;90.00;;;;;;5046801;28;19913;-83
2021/12/06 14:27:36;;;;;;;;;;;3.60;89.80;;;;;;5048630;28;19913;-84
2021/12/06 14:30:03;;;;;;;;;;;3.40;90.40;;;;;;5045478;28;19920;-84
2021/12/06 14:32:28;;;;;;;;;;;3.30;90.80;;;;;;5047310;28;19928;-85
2021/12/06 14:34:55;;;;;;;;;;;3.30;91.20;;;;;;5048864;28;20287;-85
2021/12/06 14:37:21;;;;;;;;;;;3.40;91.30;;;;;;5046577;28;19920;-84
2021/12/06 14:39:50;;;;;;;;;;;3.40;91.40;;;;;;5045791;28;19921;-85
2021/12/06 14:42:17;;;;;;;;;;;3.40;91.40;;;;;;5048894;28;19917;-84
2021/12/06 14:44:42;;;;;;;;;;;3.40;91.60;;;;;;5051472;28;19913;-85